createdAt,value
2023-04-01T00:01:59.317Z,98915.88
2023-04-01T00:07:02.773Z,98917.06
2023-04-01T00:12:07.317Z,98918.16
2023-04-01T00:17:10.345Z,98911.75
2023-04-01T00:22:13.160Z,98904.88
2023-04-01T00:27:17.617Z,98899.09
2023-04-01T00:32:20.843Z,98894.44
2023-04-01T00:37:23.808Z,98896.72
2023-04-01T00:42:27.986Z,98893.19
2023-04-01T00:47:30.915Z,98896.97
2023-04-01T00:52:33.927Z,98897.28
2023-04-01T00:57:38.837Z,98898.97
2023-04-01T01:02:43.780Z,98888.75
2023-04-01T01:07:51.646Z,98893.91
2023-04-01T01:13:04.271Z,98893.53
2023-04-01T01:18:12.758Z,98883.91
2023-04-01T01:23:49.049Z,98889.81
2023-04-01T01:28:59.868Z,98894.88
2023-04-01T01:34:13.823Z,98901.72
2023-04-01T01:39:20.339Z,98912.16
2023-04-01T01:44:24.260Z,98922.53
2023-04-01T01:49:27.629Z,98939.91
2023-04-01T01:54:31.896Z,98952.97
2023-04-01T01:59:35.481Z,98958.94
2023-04-01T02:04:40.683Z,98977.91
2023-04-01T02:09:45.474Z,98992.72
2023-04-01T02:14:52.670Z,99004.63
2023-04-01T02:19:58.431Z,99015.09
2023-04-01T02:25:07.394Z,99022.28
2023-04-01T02:30:11.193Z,99034.31
2023-04-01T02:35:16.388Z,99040.97
2023-04-01T02:40:20.889Z,99049.47
2023-04-01T02:45:23.716Z,99049.28
2023-04-01T02:50:26.557Z,99062.31
2023-04-01T02:55:31.522Z,99074.59
2023-04-01T03:00:34.672Z,99087.94
2023-04-01T03:05:37.468Z,99102.78
2023-04-01T03:10:41.937Z,99104.28
2023-04-01T03:15:44.816Z,99108.66
2023-04-01T03:20:47.755Z,99132.19
2023-04-01T03:25:51.934Z,99138.44
2023-04-01T03:30:54.868Z,99149.47
2023-04-01T03:35:57.873Z,99144.94
2023-04-01T03:41:02.735Z,99161.88
2023-04-01T03:46:06.294Z,99166.34
2023-04-01T03:51:09.776Z,99175.13
2023-04-01T03:56:14.390Z,99182.03
2023-04-01T04:01:19.582Z,99186.16
2023-04-01T04:06:23.650Z,99198.38
2023-04-01T04:11:28.052Z,99205.47
2023-04-01T04:16:31.040Z,99216.75
2023-04-01T04:21:37.263Z,99219.56
2023-04-01T04:26:42.684Z,99224.84
2023-04-01T04:31:45.748Z,99229.00
2023-04-01T04:36:48.896Z,99234.22
2023-04-01T04:41:53.356Z,99243.44
2023-04-01T04:46:58.375Z,99253.59
2023-04-01T04:52:01.557Z,99253.59
2023-04-01T04:57:06.149Z,99265.50
2023-04-01T05:02:15.477Z,99278.81
2023-04-01T05:07:18.472Z,99284.03
2023-04-01T05:12:22.771Z,99295.63
2023-04-01T05:17:37.527Z,99294.97
2023-04-01T05:22:40.976Z,99312.94
2023-04-01T05:27:45.723Z,99314.41
2023-04-01T05:32:48.651Z,99328.22
2023-04-01T05:37:51.587Z,99337.66
2023-04-01T05:42:56.193Z,99338.47
2023-04-01T05:47:59.217Z,99351.75
2023-04-01T05:53:02.367Z,99355.88
2023-04-01T05:58:06.579Z,99365.22
2023-04-01T06:03:10.838Z,99365.88
2023-04-01T06:08:17.201Z,99377.28
2023-04-01T06:13:32.537Z,99395.16
2023-04-01T06:18:47.061Z,99406.25
2023-04-01T06:23:59.683Z,99404.41
2023-04-01T06:29:27.114Z,99411.41
2023-04-01T06:34:50.120Z,99419.84
2023-04-01T06:40:06.824Z,99421.53
2023-04-01T06:45:23.022Z,99427.44
2023-04-01T06:50:55.353Z,99439.31
2023-04-01T06:56:19.486Z,99447.03
2023-04-01T07:01:43.685Z,99460.19
2023-04-01T07:06:50.604Z,99467.78
2023-04-01T07:11:56.072Z,99472.16
2023-04-01T07:17:23.621Z,99483.09
2023-04-01T07:22:32.748Z,99497.66
2023-04-01T07:27:43.482Z,99499.34
2023-04-01T07:32:50.746Z,99507.34
2023-04-01T07:38:04.675Z,99500.41
2023-04-01T07:43:21.360Z,99493.56
2023-04-01T07:48:38.007Z,99494.75
2023-04-01T07:53:46.307Z,99487.28
2023-04-01T07:58:56.795Z,99497.81
2023-04-01T08:04:27.935Z,99498.72
2023-04-01T08:09:37.146Z,99519.22
2023-04-01T08:15:09.478Z,99529.69
2023-04-01T08:20:40.818Z,99544.47
2023-04-01T08:25:50.596Z,99522.94
2023-04-01T08:30:57.554Z,99515.56
2023-04-01T08:36:06.365Z,99517.38
2023-04-01T08:41:25.069Z,99516.53
2023-04-01T08:47:21.508Z,99513.84
2023-04-01T08:52:33.073Z,99511.19
2023-04-01T08:57:44.941Z,99507.47
2023-04-01T09:03:38.964Z,99503.25
2023-04-01T09:08:59.389Z,99500.00
2023-04-01T09:14:39.869Z,99501.56
2023-04-01T09:20:04.751Z,99525.47
2023-04-01T09:25:35.417Z,99556.66
2023-04-01T09:30:55.846Z,99574.75
2023-04-01T09:36:06.333Z,99603.44
2023-04-01T09:41:19.088Z,99619.59
2023-04-01T09:46:56.015Z,99641.00
2023-04-01T09:52:12.316Z,99653.16
2023-04-01T09:57:53.444Z,99670.47
2023-04-01T10:03:44.561Z,99688.25
2023-04-01T10:09:29.557Z,99707.38
2023-04-01T10:15:23.368Z,99711.94
2023-04-01T10:20:46.391Z,99723.59
2023-04-01T10:26:13.066Z,99729.69
2023-04-01T10:31:33.378Z,99727.19
2023-04-01T10:36:45.604Z,99734.25
2023-04-01T10:42:19.298Z,99737.28
2023-04-01T10:48:15.621Z,99746.19
2023-04-01T10:53:46.290Z,99750.84
2023-04-01T10:59:38.378Z,99759.06
2023-04-01T11:05:35.860Z,99768.94
2023-04-01T11:11:18.652Z,99775.22
2023-04-01T11:16:46.928Z,99776.16
2023-04-01T11:22:12.114Z,99786.56
2023-04-01T11:27:40.710Z,99798.59
2023-04-01T11:32:53.928Z,99798.88
2023-04-01T11:38:03.376Z,99807.19
2023-04-01T11:43:33.419Z,99815.13
2023-04-01T11:49:05.373Z,99825.66
2023-04-01T11:54:20.973Z,99823.78
2023-04-01T11:59:50.756Z,99837.25
2023-04-01T12:05:02.194Z,99842.31
2023-04-01T12:10:17.746Z,99841.81
2023-04-01T12:15:29.216Z,99854.16
2023-04-01T12:20:39.895Z,99877.38
2023-04-01T12:26:06.980Z,99873.84
2023-04-01T12:31:24.953Z,99884.00
2023-04-01T12:36:37.549Z,99891.03
2023-04-01T12:41:44.851Z,99902.13
2023-04-01T12:47:01.654Z,99916.31
2023-04-01T12:52:12.536Z,99923.34
2023-04-01T12:57:31.450Z,99929.19
2023-04-01T13:02:47.407Z,99943.56
2023-04-01T13:08:02.462Z,99940.44
2023-04-01T13:13:30.316Z,99957.34
2023-04-01T13:18:46.023Z,99962.00
2023-04-01T13:23:57.803Z,99970.22
2023-04-01T13:29:06.530Z,99985.78
2023-04-01T13:34:21.905Z,99988.19
2023-04-01T13:39:31.748Z,99995.53
2023-04-01T13:44:36.906Z,100002.63
2023-04-01T13:50:06.798Z,100017.53
2023-04-01T13:55:28.541Z,100034.47
2023-04-01T14:00:38.489Z,100041.56
2023-04-01T14:05:51.904Z,100041.47
2023-04-01T14:11:05.472Z,100049.69
2023-04-01T14:16:44.335Z,100061.66
2023-04-01T14:21:54.203Z,100074.06
2023-04-01T14:27:11.400Z,100078.16
2023-04-01T14:32:18.942Z,100082.13
2023-04-01T14:37:32.962Z,100092.00
2023-04-01T14:43:00.396Z,100104.19
2023-04-01T14:48:09.779Z,100112.13
2023-04-01T14:53:25.324Z,100115.09
2023-04-01T14:58:43.447Z,100124.31
2023-04-01T15:03:52.496Z,100137.19
2023-04-01T15:09:04.921Z,100142.22
2023-04-01T15:14:40.432Z,100152.19
2023-04-01T15:20:24.596Z,100165.91
2023-04-01T15:25:54.472Z,100184.56
2023-04-01T15:30:58.991Z,100195.00
2023-04-01T15:36:08.489Z,100196.75
2023-04-01T15:41:17.946Z,100211.41
2023-04-01T15:46:32.772Z,100212.31
2023-04-01T15:51:47.995Z,100220.91
2023-04-01T15:57:01.779Z,100233.25
2023-04-01T16:02:14.906Z,100244.56
2023-04-01T16:07:32.384Z,100255.50
2023-04-01T16:12:53.017Z,100250.69
2023-04-01T16:18:07.677Z,100248.34
2023-04-01T16:23:17.410Z,100245.84
2023-04-01T16:28:25.554Z,100257.47
2023-04-01T16:33:37.447Z,100246.34
2023-04-01T16:38:43.928Z,100267.38
2023-04-01T16:43:53.106Z,100281.31
2023-04-01T16:49:06.393Z,100287.66
2023-04-01T16:54:16.208Z,100307.84
2023-04-01T16:59:24.947Z,100294.72
2023-04-01T17:04:34.220Z,100290.34
2023-04-01T17:09:51.926Z,100287.84
2023-04-01T17:15:02.151Z,100292.81
2023-04-01T17:20:17.371Z,100290.97
2023-04-01T17:25:28.495Z,100304.88
2023-04-01T17:30:36.669Z,100317.22
2023-04-01T17:35:42.009Z,100341.28
2023-04-01T17:40:54.833Z,100356.22
2023-04-01T17:46:00.136Z,100378.16
2023-04-01T17:51:21.452Z,100387.84
2023-04-01T17:56:32.359Z,100415.13
2023-04-01T18:01:48.262Z,100420.81
2023-04-01T18:07:08.799Z,100436.50
2023-04-01T18:12:17.174Z,100443.28
2023-04-01T18:17:25.913Z,100457.13
2023-04-01T18:22:31.879Z,100468.41
2023-04-01T18:27:39.105Z,100484.91
2023-04-01T18:32:51.105Z,100500.00
2023-04-01T18:37:58.420Z,100521.72
2023-04-01T18:43:12.718Z,100545.44
2023-04-01T18:48:40.566Z,100558.97
2023-04-01T18:53:47.812Z,100582.22
2023-04-01T18:58:55.889Z,100598.25
2023-04-01T19:04:05.871Z,100612.78
2023-04-01T19:09:20.502Z,100632.19
2023-04-01T19:14:31.910Z,100655.59
2023-04-01T19:19:46.187Z,100677.13
2023-04-01T19:25:11.794Z,100690.28
2023-04-01T19:30:24.444Z,100712.41
2023-04-01T19:35:35.977Z,100733.53
2023-04-01T19:40:55.054Z,100744.06
2023-04-01T19:46:04.856Z,100757.94
2023-04-01T19:51:12.585Z,100764.97
2023-04-01T19:56:19.111Z,100776.97
2023-04-01T20:01:32.074Z,100791.75
2023-04-01T20:06:46.949Z,100807.53
2023-04-01T20:11:57.317Z,100815.44
2023-04-01T20:17:21.609Z,100832.56
2023-04-01T20:22:39.547Z,100838.72
2023-04-01T20:27:47.565Z,100859.66
2023-04-01T20:33:02.663Z,100863.22
2023-04-01T20:38:26.348Z,100873.69
2023-04-01T20:43:43.269Z,100898.91
2023-04-01T20:49:12.678Z,100910.22
2023-04-01T20:54:27.083Z,100923.25
2023-04-01T20:59:40.201Z,100930.66
2023-04-01T21:05:02.665Z,100952.19
2023-04-01T21:10:19.094Z,100954.78
2023-04-01T21:15:34.970Z,100974.00
2023-04-01T21:21:10.513Z,100981.78
2023-04-01T21:26:27.636Z,100997.56
2023-04-01T21:31:42.443Z,101013.00
2023-04-01T21:36:58.612Z,101022.53
2023-04-01T21:42:11.673Z,101033.91
2023-04-01T21:47:30.862Z,101048.63
2023-04-01T21:53:11.910Z,101065.94
2023-04-01T21:58:35.699Z,101076.25
2023-04-01T22:03:58.609Z,101083.25
2023-04-01T22:09:11.919Z,101094.59
2023-04-01T22:14:21.217Z,101116.41
2023-04-01T22:19:28.583Z,101121.66
2023-04-01T22:24:37.110Z,101135.44
2023-04-01T22:29:47.480Z,101144.16
2023-04-01T22:34:53.678Z,101154.56
2023-04-01T22:40:08.538Z,101162.44
2023-04-01T22:45:54.731Z,101177.97
2023-04-01T22:51:03.642Z,101180.66
2023-04-01T22:56:09.683Z,101186.75
2023-04-01T23:01:17.157Z,101198.03
2023-04-01T23:06:23.187Z,101204.09
2023-04-01T23:11:29.465Z,101219.69
2023-04-01T23:16:37.405Z,101234.53
2023-04-01T23:21:43.516Z,101244.06
2023-04-01T23:26:53.263Z,101250.94
2023-04-01T23:32:01.301Z,101263.16
2023-04-01T23:37:06.463Z,101267.50
2023-04-01T23:42:16.148Z,101282.25
2023-04-01T23:47:23.141Z,101289.25
2023-04-01T23:52:27.524Z,101292.66
2023-04-01T23:57:32.340Z,101303.97
